Погода Лядына неделю

Гомельская область, Белоруссия

16 - 22 июля
  • 16июля
    Сегодня
    +21°
    +34°
    Ясно и безоблачно
    ВремяПогодаТемператураВлажностьДавлениеВетер, м/сВероятность осадков
    00:00Небольшая облачность+24°C91 %749 мм2.0 м/с4 %
    03:00Ясно и безоблачно+22°C98 %749 мм1.6 м/с2 %
    06:00Небольшая облачность+21°C99 %750 мм1.4 м/с2 %
    09:00Ясно и безоблачно+26°C80 %750 мм1.8 м/с2 %
    12:00Ясно и безоблачно+30°C66 %750 мм2.8 м/с2 %
    15:00Ясно и безоблачно+32°C57 %750 мм3.4 м/с2 %
    18:00Ясно и безоблачно+32°C55 %749 мм4.4 м/с2 %
    21:00Ясно и безоблачно+27°C71 %749 мм2.7 м/с2 %
  • 17июля
    Среда
    +21°
    +36°
    Небольшая облачность
    ВремяПогодаТемператураВлажностьДавлениеВетер, м/сВероятность осадков
    00:00Ясно и безоблачно+23°C86 %749 мм2.4 м/с2 %
    03:00Ясно и безоблачно+22°C91 %750 мм2.1 м/с2 %
    06:00Ясно и безоблачно+22°C89 %749 мм1.9 м/с2 %
    09:00Ясно и безоблачно+28°C72 %750 мм3.0 м/с2 %
    12:00Ясно и безоблачно+33°C52 %750 мм4.0 м/с6 %
    15:00Небольшая облачность+35°C48 %749 мм4.4 м/с21 %
    18:00Облачно с прояснениями+32°C57 %749 мм4.8 м/с42 %
    21:00Облачно с прояснениями+28°C74 %749 мм3.1 м/с21 %
  • 18июля
    Четверг
    +17°
    +31°
    Облачно с прояснениями
    ВремяПогодаТемператураВлажностьДавлениеВетер, м/сВероятность осадков
    00:00Облачно с прояснениями+24°C82 %749 мм2.2 м/с17 %
    03:00Облачно с прояснениями+23°C90 %749 мм2.8 м/с10 %
    06:00Практически безоблачно+22°C92 %749 мм2.8 м/с5 %
    09:00Облачно с прояснениями+25°C81 %749 мм3.5 м/с28 %
    12:00Облачно с прояснениями, небольшой дождь+27°C75 %749 мм4.7 м/с51 %
    15:00Облачно с прояснениями+27°C60 %749 мм4.3 м/с22 %
    18:00Облачно с прояснениями+27°C55 %749 мм5.1 м/с13 %
    21:00Облачно с прояснениями+24°C62 %749 мм3.1 м/с3 %
  • 19июля
    Пятница
    +15°
    +29°
    Практически безоблачно
    ВремяПогодаТемператураВлажностьДавлениеВетер, м/сВероятность осадков
    00:00Небольшая облачность+21°C74 %750 мм3.3 м/с2 %
    03:00Ясно и безоблачно+19°C80 %750 мм2.8 м/с2 %
    06:00Ясно и безоблачно+19°C82 %750 мм2.8 м/с2 %
    09:00Ясно и безоблачно+23°C65 %750 мм4.0 м/с2 %
    12:00Практически безоблачно+26°C48 %750 мм5.1 м/с11 %
    15:00Практически безоблачно+28°C43 %749 мм5.5 м/с4 %
    18:00Практически безоблачно+27°C40 %748 мм6.3 м/с2 %
    21:00Облачно с прояснениями+23°C54 %748 мм3.0 м/с2 %
Мы используем cookies
Соглашаюсь